Kaysville, Utah
Current Conditions -  °F | °C
As of 10:58 AM on Tuesday 21 Oct 2014 (Local Time) from KHIF Reporting Station
Overcast Overcast  
Wind Chill: 60°   Ceiling: 7000
Heat Index: 60°   Visibility: 10mi
Dew Point: 39°   Wind: 3mph
Humidity: 47%   Direction: 350°N
Pressure: 29.98"   Gusts: NA
Location:  41.03°N, 111.93°W
Report Text: KHIF 211658Z AUTO 35003KT 10SM OVC070 16/04 A2998 RMK AO2 SLP111 T01550041
Loading
Personal Weather Stations






























Interactive Weather Map
Tropical Storm Tracking
New forecast layout! Learn more

10-Day Weather Forecast

Advertisements
Track Severe Weather on mobile